createdAt,value
2023-05-17T00:00:17.273Z,83.24
2023-05-17T00:02:05.465Z,83.36
2023-05-17T00:03:41.258Z,83.16
2023-05-17T00:05:03.307Z,83.34
2023-05-17T00:06:48.462Z,83.32
2023-05-17T00:08:33.179Z,83.26
2023-05-17T00:10:09.386Z,83.47
2023-05-17T00:11:31.708Z,83.49
2023-05-17T00:13:05.056Z,83.62
2023-05-17T00:14:58.509Z,83.56
2023-05-17T00:16:45.083Z,83.38
2023-05-17T00:18:31.537Z,83.60
2023-05-17T00:20:18.202Z,83.67
2023-05-17T00:21:52.241Z,83.57
2023-05-17T00:23:16.213Z,83.64
2023-05-17T00:25:01.568Z,83.36
2023-05-17T00:26:46.606Z,83.52
2023-05-17T00:28:27.372Z,83.64
2023-05-17T00:30:01.100Z,83.17
2023-05-17T00:31:42.801Z,83.14
2023-05-17T00:33:16.450Z,83.32
2023-05-17T00:34:38.374Z,83.21
2023-05-17T00:36:02.716Z,83.06
2023-05-17T00:37:57.217Z,83.27
2023-05-17T00:39:26.268Z,83.28
2023-05-17T00:41:00.166Z,83.44
2023-05-17T00:42:33.736Z,83.43
2023-05-17T00:44:15.070Z,83.46
2023-05-17T00:45:51.818Z,83.21
2023-05-17T00:47:27.511Z,82.99
2023-05-17T00:48:52.357Z,83.29
2023-05-17T00:50:28.451Z,83.08
2023-05-17T00:52:01.894Z,83.15
2023-05-17T00:53:37.461Z,83.16
2023-05-17T00:55:08.769Z,83.25
2023-05-17T00:56:34.410Z,83.06
2023-05-17T00:58:08.374Z,83.16
2023-05-17T00:59:44.261Z,83.07
2023-05-17T01:01:26.098Z,83.04
2023-05-17T01:03:00.467Z,83.02
2023-05-17T01:04:24.764Z,83.13
2023-05-17T01:05:46.969Z,83.09
2023-05-17T01:07:32.762Z,83.21
2023-05-17T01:09:18.852Z,83.31
2023-05-17T01:10:52.292Z,83.13
2023-05-17T01:12:40.445Z,83.25
2023-05-17T01:14:25.260Z,83.10
2023-05-17T01:16:00.253Z,83.09
2023-05-17T01:17:36.859Z,83.21
2023-05-17T01:19:27.715Z,83.13
2023-05-17T01:21:01.959Z,83.22
2023-05-17T01:22:47.413Z,83.28
2023-05-17T01:24:36.160Z,83.25
2023-05-17T01:26:09.686Z,83.33
2023-05-17T01:27:45.558Z,83.51
2023-05-17T01:29:31.074Z,83.47
2023-05-17T01:31:02.623Z,83.44
2023-05-17T01:32:36.112Z,83.32
2023-05-17T01:34:09.571Z,83.37
2023-05-17T01:35:45.381Z,83.52
2023-05-17T01:37:30.450Z,83.55
2023-05-17T01:39:06.397Z,83.71
2023-05-17T01:40:53.585Z,83.80
2023-05-17T01:42:27.886Z,83.49
2023-05-17T01:44:03.024Z,83.49
2023-05-17T01:45:56.239Z,83.60
2023-05-17T01:47:35.641Z,83.65
2023-05-17T01:49:16.361Z,83.39
2023-05-17T01:51:04.823Z,83.20
2023-05-17T01:52:43.587Z,83.29
2023-05-17T01:54:25.580Z,83.31
2023-05-17T01:56:01.167Z,83.42
2023-05-17T01:57:46.548Z,83.46
2023-05-17T01:59:33.607Z,83.44
2023-05-17T02:01:00.327Z,83.66
2023-05-17T02:02:53.852Z,83.88
2023-05-17T02:04:23.491Z,83.67
2023-05-17T02:05:59.382Z,83.50
2023-05-17T02:07:34.740Z,83.43
2023-05-17T02:09:08.807Z,83.48
2023-05-17T02:10:40.117Z,83.36
2023-05-17T02:12:28.637Z,83.42
2023-05-17T02:13:53.601Z,83.44
2023-05-17T02:15:22.332Z,83.54
2023-05-17T02:17:07.748Z,83.62
2023-05-17T02:18:41.379Z,83.52
2023-05-17T02:20:15.196Z,83.06
2023-05-17T02:21:48.487Z,83.30
2023-05-17T02:23:29.301Z,83.49
2023-05-17T02:25:05.120Z,83.49
2023-05-17T02:26:50.429Z,83.28
2023-05-17T02:28:23.342Z,83.41
2023-05-17T02:30:05.067Z,83.18
2023-05-17T02:31:42.344Z,83.25
2023-05-17T02:33:29.731Z,83.41
2023-05-17T02:35:15.104Z,83.48
2023-05-17T02:36:49.241Z,83.26
2023-05-17T02:38:25.403Z,83.36
2023-05-17T02:40:10.912Z,83.49
2023-05-17T02:41:44.239Z,83.53
2023-05-17T02:43:08.399Z,83.57
2023-05-17T02:44:54.620Z,83.65
2023-05-17T02:46:31.124Z,83.70
2023-05-17T02:48:21.171Z,83.96
2023-05-17T02:49:58.003Z,83.91
2023-05-17T02:51:36.663Z,83.83
2023-05-17T02:53:09.995Z,83.90
2023-05-17T02:54:47.694Z,83.79
2023-05-17T02:56:23.870Z,83.89
2023-05-17T02:57:58.993Z,83.98
2023-05-17T02:59:32.401Z,83.85
2023-05-17T03:01:09.440Z,83.28
2023-05-17T03:02:42.877Z,83.47
2023-05-17T03:04:23.536Z,83.50
2023-05-17T03:05:59.210Z,83.67
2023-05-17T03:07:40.034Z,83.30
2023-05-17T03:09:13.484Z,83.03
2023-05-17T03:10:35.523Z,82.90
2023-05-17T03:11:57.676Z,83.08
2023-05-17T03:13:34.634Z,83.42
2023-05-17T03:15:19.657Z,83.23
2023-05-17T03:17:05.064Z,82.83
2023-05-17T03:18:43.934Z,83.27
2023-05-17T03:20:17.408Z,83.37
2023-05-17T03:22:02.865Z,83.81
2023-05-17T03:23:37.892Z,83.76
2023-05-17T03:24:59.554Z,83.29
2023-05-17T03:26:33.433Z,83.47
2023-05-17T03:28:07.505Z,83.56
2023-05-17T03:29:41.096Z,84.05
2023-05-17T03:31:26.448Z,83.65
2023-05-17T03:33:02.955Z,83.97
2023-05-17T03:34:48.595Z,83.77
2023-05-17T03:36:37.245Z,83.87
2023-05-17T03:38:13.512Z,83.40
2023-05-17T03:39:58.805Z,83.43
2023-05-17T03:41:52.365Z,84.27
2023-05-17T03:43:38.032Z,84.22
2023-05-17T03:45:15.743Z,83.88
2023-05-17T03:47:00.815Z,83.90
2023-05-17T03:48:46.445Z,84.20
2023-05-17T03:50:20.367Z,84.21
2023-05-17T03:51:54.113Z,83.62
2023-05-17T03:53:23.539Z,83.56
2023-05-17T03:54:59.103Z,83.38
2023-05-17T03:56:32.456Z,83.51
2023-05-17T03:58:08.768Z,83.82
2023-05-17T03:59:46.587Z,83.30
2023-05-17T04:01:21.613Z,83.54
2023-05-17T04:02:50.830Z,84.01
2023-05-17T04:04:33.510Z,83.65
2023-05-17T04:06:07.687Z,83.70
2023-05-17T04:07:29.541Z,83.73
2023-05-17T04:09:15.082Z,84.04
2023-05-17T04:10:48.423Z,83.90
2023-05-17T04:12:22.504Z,83.83
2023-05-17T04:13:51.751Z,83.50
2023-05-17T04:15:32.048Z,83.89
2023-05-17T04:16:57.257Z,83.27
2023-05-17T04:18:21.173Z,83.91
2023-05-17T04:19:43.185Z,83.79
2023-05-17T04:21:24.120Z,83.99
2023-05-17T04:23:05.401Z,83.82
2023-05-17T04:24:40.184Z,83.70
2023-05-17T04:26:13.943Z,83.46
2023-05-17T04:27:59.414Z,83.71
2023-05-17T04:29:21.676Z,83.61
2023-05-17T04:31:06.920Z,83.68
2023-05-17T04:32:31.331Z,83.66
2023-05-17T04:34:05.222Z,83.85
2023-05-17T04:35:27.004Z,83.30
2023-05-17T04:36:51.571Z,83.18
2023-05-17T04:38:23.049Z,83.34
2023-05-17T04:39:58.643Z,83.85
2023-05-17T04:41:34.627Z,83.48
2023-05-17T04:43:20.366Z,83.45
2023-05-17T04:44:46.919Z,83.56
2023-05-17T04:46:16.338Z,83.36
2023-05-17T04:47:53.125Z,83.25
2023-05-17T04:49:24.607Z,83.39
2023-05-17T04:50:54.154Z,83.57
2023-05-17T04:52:40.152Z,83.24
2023-05-17T04:54:14.385Z,82.94
2023-05-17T04:55:48.675Z,83.27
2023-05-17T04:57:24.616Z,83.11
2023-05-17T04:59:09.391Z,82.91
2023-05-17T05:00:33.820Z,83.01
2023-05-17T05:02:20.798Z,82.23
2023-05-17T05:04:06.628Z,82.81
2023-05-17T05:05:50.072Z,82.43
2023-05-17T05:07:27.037Z,82.81
2023-05-17T05:08:56.687Z,82.67
2023-05-17T05:10:20.801Z,82.90
2023-05-17T05:11:45.258Z,83.06
2023-05-17T05:13:26.229Z,82.52
2023-05-17T05:15:01.233Z,82.47
2023-05-17T05:16:53.593Z,82.87
2023-05-17T05:18:26.995Z,82.18
2023-05-17T05:20:07.789Z,81.88
2023-05-17T05:21:41.449Z,81.83
2023-05-17T05:23:26.328Z,81.57
2023-05-17T05:25:02.689Z,81.33
2023-05-17T05:26:53.545Z,81.40
2023-05-17T05:28:38.314Z,80.91
2023-05-17T05:30:23.737Z,81.27
2023-05-17T05:32:04.821Z,81.00
2023-05-17T05:33:56.584Z,81.10
2023-05-17T05:35:37.274Z,80.93
2023-05-17T05:37:10.596Z,81.15
2023-05-17T05:38:56.323Z,81.45
2023-05-17T05:40:29.893Z,81.66
2023-05-17T05:41:56.404Z,81.32
2023-05-17T05:43:37.215Z,81.39
2023-05-17T05:45:20.192Z,81.47
2023-05-17T05:47:00.150Z,81.35
2023-05-17T05:48:45.427Z,81.00
2023-05-17T05:50:17.289Z,81.17
2023-05-17T05:51:53.587Z,81.19
2023-05-17T05:53:26.984Z,80.81
2023-05-17T05:55:03.598Z,81.06
2023-05-17T05:56:27.489Z,80.78
2023-05-17T05:58:10.046Z,80.94
2023-05-17T05:59:56.075Z,80.62
2023-05-17T06:01:34.386Z,80.33
2023-05-17T06:03:01.081Z,80.73
2023-05-17T06:04:43.787Z,80.38
2023-05-17T06:06:06.181Z,80.53
2023-05-17T06:07:28.017Z,80.39
2023-05-17T06:09:13.672Z,80.18
2023-05-17T06:10:42.821Z,80.41
2023-05-17T06:12:28.112Z,80.52
2023-05-17T06:14:13.167Z,80.54
2023-05-17T06:15:58.599Z,80.71
2023-05-17T06:17:35.082Z,80.59
2023-05-17T06:19:21.338Z,80.34
2023-05-17T06:20:57.089Z,80.13
2023-05-17T06:22:30.152Z,79.98
2023-05-17T06:24:10.813Z,79.88
2023-05-17T06:25:44.723Z,79.80
2023-05-17T06:27:21.298Z,79.62
2023-05-17T06:28:51.092Z,79.49
2023-05-17T06:30:32.587Z,79.88
2023-05-17T06:32:06.585Z,79.85
2023-05-17T06:33:48.225Z,79.56
2023-05-17T06:35:30.145Z,79.84
2023-05-17T06:37:18.186Z,80.47
2023-05-17T06:38:53.899Z,80.03
2023-05-17T06:40:29.349Z,80.10
2023-05-17T06:42:14.749Z,79.97
2023-05-17T06:43:48.330Z,80.01
2023-05-17T06:45:32.337Z,79.89
2023-05-17T06:47:13.912Z,79.96
2023-05-17T06:48:54.494Z,79.66
2023-05-17T06:50:29.340Z,80.00
2023-05-17T06:52:03.485Z,80.09
2023-05-17T06:53:37.001Z,79.70
2023-05-17T06:55:22.439Z,80.05
2023-05-17T06:57:07.323Z,80.32
2023-05-17T06:58:40.641Z,79.76
2023-05-17T07:00:06.380Z,80.33
2023-05-17T07:01:39.839Z,80.05
2023-05-17T07:03:25.327Z,80.14
2023-05-17T07:05:01.477Z,80.20
2023-05-17T07:06:35.106Z,79.64
2023-05-17T07:08:09.246Z,80.12
2023-05-17T07:09:42.589Z,80.42
2023-05-17T07:11:16.277Z,80.43
2023-05-17T07:12:42.864Z,80.06
2023-05-17T07:14:23.320Z,79.70
2023-05-17T07:15:45.175Z,80.08
2023-05-17T07:17:08.971Z,79.94
2023-05-17T07:18:32.936Z,79.83
2023-05-17T07:20:06.932Z,80.04
2023-05-17T07:21:54.334Z,79.84
2023-05-17T07:23:20.628Z,79.73
2023-05-17T07:24:52.299Z,79.58
2023-05-17T07:26:32.667Z,79.70
2023-05-17T07:28:18.463Z,80.39
2023-05-17T07:30:03.527Z,80.22
2023-05-17T07:31:48.916Z,80.30
2023-05-17T07:33:22.370Z,79.48
2023-05-17T07:35:07.254Z,79.40
2023-05-17T07:36:43.287Z,79.68
2023-05-17T07:38:12.877Z,79.63
2023-05-17T07:39:46.091Z,80.24
2023-05-17T07:41:21.674Z,79.87
2023-05-17T07:42:43.538Z,80.08
2023-05-17T07:44:10.092Z,79.92
2023-05-17T07:45:50.598Z,79.62
2023-05-17T07:47:17.152Z,79.71
2023-05-17T07:48:58.868Z,79.66
2023-05-17T07:50:33.749Z,79.18
2023-05-17T07:51:58.305Z,79.50
2023-05-17T07:53:22.370Z,80.18
2023-05-17T07:54:58.372Z,79.85
2023-05-17T07:56:34.020Z,80.34
2023-05-17T07:57:58.490Z,79.67
2023-05-17T07:59:22.541Z,79.34
2023-05-17T08:00:58.498Z,79.22
2023-05-17T08:02:34.414Z,79.40
2023-05-17T08:04:19.913Z,79.30
2023-05-17T08:05:41.878Z,79.15
2023-05-17T08:07:17.701Z,78.61
2023-05-17T08:08:54.155Z,79.28
2023-05-17T08:10:36.326Z,78.97
2023-05-17T08:12:12.736Z,78.69
2023-05-17T08:13:46.159Z,78.20
2023-05-17T08:15:19.830Z,77.93
2023-05-17T08:17:00.811Z,77.63
2023-05-17T08:18:38.918Z,77.66
2023-05-17T08:20:10.165Z,77.57
2023-05-17T08:21:45.770Z,77.59
2023-05-17T08:23:26.901Z,77.04
2023-05-17T08:25:00.686Z,76.62
2023-05-17T08:26:36.262Z,76.93
2023-05-17T08:28:21.196Z,77.00
2023-05-17T08:29:54.850Z,76.79
2023-05-17T08:31:21.103Z,75.69
2023-05-17T08:32:57.285Z,75.94
2023-05-17T08:34:31.003Z,76.15
2023-05-17T08:36:08.005Z,75.91
2023-05-17T08:37:43.462Z,75.55
2023-05-17T08:39:17.296Z,75.26
2023-05-17T08:40:58.646Z,75.59
2023-05-17T08:42:34.372Z,76.20
2023-05-17T08:44:06.226Z,75.94
2023-05-17T08:45:28.238Z,76.21
2023-05-17T08:47:10.938Z,75.56
2023-05-17T08:48:55.666Z,75.86
2023-05-17T08:50:25.176Z,75.73
2023-05-17T08:52:10.575Z,75.98
2023-05-17T08:53:47.077Z,76.41
2023-05-17T08:55:31.054Z,76.55
2023-05-17T08:57:04.713Z,75.87
2023-05-17T08:58:52.273Z,75.83
2023-05-17T09:00:22.572Z,75.50
2023-05-17T09:01:54.747Z,75.48
2023-05-17T09:03:33.832Z,75.50
2023-05-17T09:04:58.635Z,75.37
2023-05-17T09:06:28.195Z,75.79
2023-05-17T09:08:13.732Z,75.44
2023-05-17T09:11:35.834Z,75.25
2023-05-17T09:13:24.892Z,75.10
2023-05-17T09:15:09.927Z,74.61
2023-05-17T09:17:03.716Z,74.74
2023-05-17T09:18:25.361Z,74.03
2023-05-17T09:19:59.261Z,74.11
2023-05-17T09:21:34.595Z,73.15
2023-05-17T09:23:15.561Z,73.20
2023-05-17T09:24:49.208Z,73.09
2023-05-17T09:26:39.861Z,72.56
2023-05-17T09:28:11.865Z,72.50
2023-05-17T09:29:47.585Z,71.42
2023-05-17T09:31:39.355Z,71.06
2023-05-17T09:33:17.728Z,71.23
2023-05-17T09:34:52.911Z,71.95
2023-05-17T09:36:26.292Z,70.80
2023-05-17T09:38:00.268Z,70.70
2023-05-17T09:39:45.325Z,69.59
2023-05-17T09:41:20.960Z,69.65
2023-05-17T09:42:56.506Z,68.64
2023-05-17T09:44:36.877Z,68.42
2023-05-17T09:46:01.453Z,67.31
2023-05-17T09:47:37.625Z,67.15
2023-05-17T09:49:23.194Z,66.84
2023-05-17T09:50:56.693Z,66.26
2023-05-17T09:52:45.688Z,66.30
2023-05-17T09:54:07.785Z,66.38
2023-05-17T09:55:41.441Z,65.97
2023-05-17T09:57:19.353Z,65.39
2023-05-17T09:58:52.859Z,65.01
2023-05-17T10:00:26.326Z,64.55
2023-05-17T10:01:59.862Z,64.47
2023-05-17T10:03:24.373Z,64.42
2023-05-17T10:04:46.175Z,63.86
2023-05-17T10:06:09.880Z,64.38
2023-05-17T10:07:56.943Z,64.50
2023-05-17T10:09:46.076Z,64.15
2023-05-17T10:11:21.901Z,63.61
2023-05-17T10:12:55.991Z,63.00
2023-05-17T10:14:29.427Z,63.48
2023-05-17T10:16:05.634Z,63.30
2023-05-17T10:17:39.401Z,63.24
2023-05-17T10:19:20.836Z,63.72
2023-05-17T10:20:45.300Z,64.32
2023-05-17T10:22:23.062Z,64.02
2023-05-17T10:23:47.749Z,63.64
2023-05-17T10:25:23.252Z,63.58
2023-05-17T10:26:56.969Z,64.13
2023-05-17T10:28:18.560Z,64.33
2023-05-17T10:29:52.257Z,64.21
2023-05-17T10:31:16.245Z,63.92
2023-05-17T10:32:49.169Z,63.64
2023-05-17T10:34:11.973Z,63.45
2023-05-17T10:35:45.598Z,63.87
2023-05-17T10:37:16.934Z,64.06
2023-05-17T10:38:42.940Z,64.00
2023-05-17T10:40:24.854Z,64.35
2023-05-17T10:41:47.135Z,63.93
2023-05-17T10:43:22.780Z,63.92
2023-05-17T10:44:44.801Z,63.16
2023-05-17T10:46:39.131Z,62.91
2023-05-17T10:48:25.689Z,62.54
2023-05-17T10:49:50.051Z,61.44
2023-05-17T10:51:28.796Z,60.61
2023-05-17T10:53:04.871Z,60.15
2023-05-17T10:54:39.217Z,60.17
2023-05-17T10:56:15.901Z,59.27
2023-05-17T10:58:09.233Z,59.11
2023-05-17T10:59:38.490Z,59.50
2023-05-17T11:01:20.164Z,59.41
2023-05-17T11:02:53.892Z,59.51
2023-05-17T11:04:38.881Z,60.10
2023-05-17T11:06:25.883Z,60.35
2023-05-17T11:07:59.564Z,59.56
2023-05-17T11:09:38.066Z,59.88
2023-05-17T11:11:12.112Z,59.76
2023-05-17T11:12:46.901Z,60.40
2023-05-17T11:14:22.769Z,60.57
2023-05-17T11:15:46.973Z,60.93
2023-05-17T11:17:18.798Z,61.07
2023-05-17T11:18:43.261Z,60.85
2023-05-17T11:20:24.307Z,60.42
2023-05-17T11:21:48.124Z,59.32
2023-05-17T11:23:12.660Z,59.34
2023-05-17T11:24:43.628Z,59.23
2023-05-17T11:26:15.403Z,58.32
2023-05-17T11:27:40.719Z,58.62
2023-05-17T11:29:14.579Z,57.51
2023-05-17T11:30:52.199Z,57.08
2023-05-17T11:32:25.164Z,56.99
2023-05-17T11:33:49.541Z,56.95
2023-05-17T11:35:14.648Z,56.73
2023-05-17T11:36:49.962Z,56.45
2023-05-17T11:38:17.085Z,56.78
2023-05-17T11:39:50.713Z,56.81
2023-05-17T11:41:26.802Z,57.00
2023-05-17T11:43:12.602Z,56.19
2023-05-17T11:44:38.947Z,56.04
2023-05-17T11:46:19.108Z,55.71
2023-05-17T11:47:53.497Z,56.06
2023-05-17T11:49:33.887Z,56.49
2023-05-17T11:51:16.361Z,56.26
2023-05-17T11:53:01.609Z,56.42
2023-05-17T11:54:25.645Z,55.87
2023-05-17T11:55:47.506Z,56.00
2023-05-17T11:57:30.455Z,56.08
2023-05-17T11:59:16.176Z,55.77
2023-05-17T12:00:49.916Z,56.51
2023-05-17T12:02:23.076Z,56.38
2023-05-17T12:03:56.167Z,56.14
2023-05-17T12:05:17.636Z,56.62
2023-05-17T12:06:53.770Z,56.85
2023-05-17T12:08:18.668Z,57.22
2023-05-17T12:09:42.577Z,57.28
2023-05-17T12:11:16.815Z,57.65
2023-05-17T12:12:38.546Z,57.55
2023-05-17T12:14:04.959Z,58.19
2023-05-17T12:15:26.981Z,57.96
2023-05-17T12:16:49.100Z,58.12
2023-05-17T12:18:20.740Z,57.71
2023-05-17T12:19:42.619Z,57.96
2023-05-17T12:21:23.674Z,57.99
2023-05-17T12:22:57.284Z,58.07
2023-05-17T12:24:37.564Z,57.88
2023-05-17T12:26:11.303Z,58.18
2023-05-17T12:27:47.052Z,58.26
2023-05-17T12:29:23.078Z,58.50
2023-05-17T12:30:52.300Z,58.59
2023-05-17T12:32:17.005Z,58.75
2023-05-17T12:33:53.622Z,58.43
2023-05-17T12:35:18.510Z,58.72
2023-05-17T12:36:47.664Z,58.30
2023-05-17T12:38:38.105Z,58.08
2023-05-17T12:40:19.952Z,58.56
2023-05-17T12:41:56.350Z,59.53
2023-05-17T12:43:32.283Z,59.56
2023-05-17T12:45:14.241Z,59.32
2023-05-17T12:46:54.866Z,58.83
2023-05-17T12:48:28.473Z,59.30
2023-05-17T12:49:50.676Z,59.35
2023-05-17T12:51:32.542Z,59.46
2023-05-17T12:53:02.409Z,59.19
2023-05-17T12:54:42.991Z,59.24
2023-05-17T12:56:24.163Z,59.32
2023-05-17T12:57:53.813Z,60.12
2023-05-17T12:59:40.580Z,60.16
2023-05-17T13:01:19.098Z,59.67
2023-05-17T13:02:42.315Z,59.22
2023-05-17T13:04:10.130Z,59.01
2023-05-17T13:05:34.349Z,58.77
2023-05-17T13:06:58.397Z,59.20
2023-05-17T13:08:39.216Z,59.66
2023-05-17T13:10:13.149Z,59.65
2023-05-17T13:11:41.301Z,58.77
2023-05-17T13:13:03.041Z,58.27
2023-05-17T13:14:27.278Z,58.11
2023-05-17T13:15:49.106Z,57.37
2023-05-17T13:17:22.852Z,57.29
2023-05-17T13:18:56.352Z,57.71
2023-05-17T13:20:37.320Z,57.95
2023-05-17T13:22:04.243Z,58.05
2023-05-17T13:23:35.546Z,57.63
2023-05-17T13:25:09.197Z,57.39
2023-05-17T13:26:49.998Z,57.12
2023-05-17T13:28:38.815Z,57.86
2023-05-17T13:30:15.909Z,58.27
2023-05-17T13:31:48.903Z,57.99
2023-05-17T13:33:10.876Z,57.65
2023-05-17T13:34:46.985Z,58.14
2023-05-17T13:36:08.933Z,58.00
2023-05-17T13:37:53.849Z,58.43
2023-05-17T13:39:27.139Z,58.84
2023-05-17T13:41:00.225Z,58.98
2023-05-17T13:42:43.104Z,58.62
2023-05-17T13:44:17.144Z,58.93
2023-05-17T13:45:54.086Z,59.04
2023-05-17T13:47:16.570Z,59.26
2023-05-17T13:48:39.793Z,59.17
2023-05-17T13:50:17.252Z,59.66
2023-05-17T13:51:41.618Z,59.06
2023-05-17T13:53:22.538Z,58.69
2023-05-17T13:54:46.940Z,58.45
2023-05-17T13:56:22.966Z,58.25
2023-05-17T13:57:52.196Z,57.89
2023-05-17T13:59:16.176Z,58.17
2023-05-17T14:00:49.313Z,58.45
2023-05-17T14:02:26.194Z,58.69
2023-05-17T14:03:56.210Z,58.62
2023-05-17T14:05:45.396Z,59.31
2023-05-17T14:07:14.999Z,58.67
2023-05-17T14:08:36.642Z,58.80
2023-05-17T14:10:01.027Z,58.69
2023-05-17T14:11:46.227Z,59.07
2023-05-17T14:13:26.194Z,59.39
2023-05-17T14:14:59.618Z,59.32
2023-05-17T14:16:26.170Z,59.00
2023-05-17T14:17:50.277Z,58.81
2023-05-17T14:19:20.204Z,59.06
2023-05-17T14:20:44.220Z,59.18
2023-05-17T14:22:18.261Z,59.07
2023-05-17T14:23:52.101Z,59.45
2023-05-17T14:25:14.667Z,59.58
2023-05-17T14:26:47.747Z,60.12
2023-05-17T14:28:12.167Z,59.58
2023-05-17T14:29:35.684Z,59.29
2023-05-17T14:31:07.455Z,59.51
2023-05-17T14:32:31.573Z,59.76
2023-05-17T14:34:12.442Z,59.65
2023-05-17T14:35:45.780Z,59.67
2023-05-17T14:37:07.782Z,60.12
2023-05-17T14:38:43.332Z,60.18
2023-05-17T14:40:17.114Z,60.04
2023-05-17T14:41:39.344Z,60.15
2023-05-17T14:43:08.361Z,60.22
2023-05-17T14:44:39.694Z,60.38
2023-05-17T14:46:01.925Z,60.25
2023-05-17T14:47:36.952Z,60.12
2023-05-17T14:49:06.904Z,60.17
2023-05-17T14:50:41.103Z,60.05
2023-05-17T14:52:10.574Z,60.51
2023-05-17T14:53:43.832Z,60.61
2023-05-17T14:55:16.284Z,60.24
2023-05-17T14:56:49.801Z,60.25
2023-05-17T14:58:30.617Z,60.50
2023-05-17T15:00:11.561Z,60.88
2023-05-17T15:01:45.040Z,60.94
2023-05-17T15:03:26.802Z,61.25
2023-05-17T15:05:03.639Z,60.98
2023-05-17T15:06:27.592Z,60.75
2023-05-17T15:07:51.257Z,60.48
2023-05-17T15:09:18.151Z,60.33
2023-05-17T15:10:58.915Z,60.59
2023-05-17T15:12:20.841Z,60.77
2023-05-17T15:13:44.865Z,60.96
2023-05-17T15:15:25.506Z,60.58
2023-05-17T15:16:47.624Z,60.42
2023-05-17T15:18:14.279Z,60.20
2023-05-17T15:19:38.374Z,60.45
2023-05-17T15:21:12.194Z,60.32
2023-05-17T15:22:36.622Z,60.48
2023-05-17T15:24:14.387Z,60.59
2023-05-17T15:26:00.261Z,60.79
2023-05-17T15:27:21.702Z,61.02
2023-05-17T15:28:55.588Z,61.21
2023-05-17T15:30:34.119Z,61.25
2023-05-17T15:31:56.673Z,61.36
2023-05-17T15:33:32.099Z,61.54
2023-05-17T15:35:16.470Z,61.63
2023-05-17T15:36:49.602Z,61.68
2023-05-17T15:38:13.872Z,61.76
2023-05-17T15:39:37.592Z,61.87
2023-05-17T15:41:11.217Z,62.03
2023-05-17T15:42:44.869Z,62.04
2023-05-17T15:44:25.711Z,62.39
2023-05-17T15:45:59.308Z,62.46
2023-05-17T15:47:23.839Z,62.29
2023-05-17T15:48:58.013Z,62.27
2023-05-17T15:50:32.018Z,62.85
2023-05-17T15:52:05.438Z,62.66
2023-05-17T15:53:38.952Z,62.87
2023-05-17T15:55:10.867Z,62.38
2023-05-17T15:56:42.169Z,62.29
2023-05-17T15:58:12.027Z,62.34
2023-05-17T15:59:45.480Z,62.45
2023-05-17T16:01:14.803Z,62.45
2023-05-17T16:02:51.127Z,62.43
2023-05-17T16:04:22.839Z,62.16
2023-05-17T16:05:47.424Z,62.09
2023-05-17T16:07:32.965Z,62.47
2023-05-17T16:08:54.913Z,62.76
2023-05-17T16:10:28.227Z,62.68
2023-05-17T16:11:57.655Z,62.77
2023-05-17T16:13:43.113Z,62.99
2023-05-17T16:15:19.869Z,63.17
2023-05-17T16:16:55.355Z,63.45
2023-05-17T16:18:19.349Z,63.48
2023-05-17T16:19:45.807Z,63.66
2023-05-17T16:21:07.998Z,63.38
2023-05-17T16:22:53.705Z,63.42
2023-05-17T16:24:27.888Z,63.60
2023-05-17T16:26:01.574Z,63.24
2023-05-17T16:27:23.428Z,63.54
2023-05-17T16:29:04.976Z,63.31
2023-05-17T16:30:29.422Z,63.62
2023-05-17T16:32:03.065Z,63.71
2023-05-17T16:33:47.894Z,63.48
2023-05-17T16:35:22.966Z,63.27
2023-05-17T16:36:56.364Z,63.02
2023-05-17T16:38:29.941Z,63.23
2023-05-17T16:39:54.351Z,63.58
2023-05-17T16:41:31.271Z,63.55
2023-05-17T16:43:07.062Z,63.22
2023-05-17T16:44:48.206Z,63.18
2023-05-17T16:46:12.342Z,63.22
2023-05-17T16:47:36.268Z,63.01
2023-05-17T16:49:17.648Z,63.60
2023-05-17T16:50:54.162Z,63.47
2023-05-17T16:52:30.331Z,63.54
2023-05-17T16:54:04.191Z,63.66
2023-05-17T16:55:27.992Z,63.46
2023-05-17T16:56:49.605Z,63.50
2023-05-17T16:58:36.984Z,63.61
2023-05-17T17:00:10.663Z,63.53
2023-05-17T17:01:36.465Z,63.66
2023-05-17T17:03:10.280Z,63.69
2023-05-17T17:04:46.459Z,63.50
2023-05-17T17:06:08.738Z,63.41
2023-05-17T17:07:42.560Z,63.83
2023-05-17T17:09:19.446Z,63.57
2023-05-17T17:10:41.524Z,63.92
2023-05-17T17:12:24.581Z,63.98
2023-05-17T17:14:19.278Z,64.29
2023-05-17T17:15:41.182Z,64.28
2023-05-17T17:17:02.883Z,64.43
2023-05-17T17:18:48.324Z,64.42
2023-05-17T17:20:33.302Z,64.01
2023-05-17T17:22:14.377Z,64.44
2023-05-17T17:23:48.306Z,64.46
2023-05-17T17:25:24.506Z,64.38
2023-05-17T17:26:57.740Z,64.40
2023-05-17T17:28:31.513Z,64.95
2023-05-17T17:30:04.947Z,65.22
2023-05-17T17:31:38.089Z,64.86
2023-05-17T17:33:16.583Z,64.71
2023-05-17T17:34:38.705Z,64.89
2023-05-17T17:36:05.173Z,65.08
2023-05-17T17:37:38.657Z,64.93
2023-05-17T17:39:14.954Z,64.93
2023-05-17T17:40:51.124Z,64.85
2023-05-17T17:42:32.291Z,64.99
2023-05-17T17:43:54.313Z,65.19
2023-05-17T17:45:18.707Z,64.89
2023-05-17T17:46:42.760Z,65.16
2023-05-17T17:48:07.245Z,64.99
2023-05-17T17:49:35.941Z,65.61
2023-05-17T17:51:00.540Z,65.23
2023-05-17T17:52:36.678Z,65.21
2023-05-17T17:53:58.363Z,65.44
2023-05-17T17:55:19.938Z,65.18
2023-05-17T17:57:05.008Z,65.06
2023-05-17T17:58:29.889Z,64.95
2023-05-17T17:59:51.804Z,65.17
2023-05-17T18:01:25.560Z,65.39
2023-05-17T18:02:47.192Z,65.08
2023-05-17T18:04:21.262Z,65.19
2023-05-17T18:05:57.050Z,64.96
2023-05-17T18:07:36.038Z,65.34
2023-05-17T18:09:09.275Z,65.45
2023-05-17T18:10:53.899Z,65.14
2023-05-17T18:12:27.555Z,65.25
2023-05-17T18:14:02.506Z,64.91
2023-05-17T18:15:47.265Z,65.11
2023-05-17T18:17:10.204Z,65.24
2023-05-17T18:18:34.195Z,65.34
2023-05-17T18:19:56.005Z,65.11
2023-05-17T18:21:29.740Z,65.62
2023-05-17T18:23:03.033Z,65.69
2023-05-17T18:24:36.683Z,65.33
2023-05-17T18:26:10.598Z,65.39
2023-05-17T18:27:43.733Z,65.53
2023-05-17T18:29:19.453Z,65.76
2023-05-17T18:31:00.356Z,64.84
2023-05-17T18:32:34.105Z,65.38
2023-05-17T18:34:15.073Z,64.80
2023-05-17T18:35:39.096Z,64.99
2023-05-17T18:37:12.698Z,64.96
2023-05-17T18:38:36.780Z,64.90
2023-05-17T18:40:06.349Z,64.56
2023-05-17T18:41:35.359Z,65.27
2023-05-17T18:42:59.500Z,65.03
2023-05-17T18:44:21.512Z,65.25
2023-05-17T18:45:46.662Z,65.13
2023-05-17T18:47:31.823Z,64.87
2023-05-17T18:48:54.133Z,64.52
2023-05-17T18:50:16.055Z,64.57
2023-05-17T18:51:40.124Z,64.65
2023-05-17T18:53:22.866Z,64.84
2023-05-17T18:54:56.288Z,65.03
2023-05-17T18:56:22.678Z,65.05
2023-05-17T18:57:58.678Z,64.63
2023-05-17T18:59:32.106Z,64.61
2023-05-17T19:00:55.931Z,64.34
2023-05-17T19:02:25.227Z,64.20
2023-05-17T19:03:59.252Z,64.63
2023-05-17T19:05:21.688Z,64.53
2023-05-17T19:06:53.097Z,64.97
2023-05-17T19:08:28.873Z,65.03
2023-05-17T19:09:51.104Z,65.20
2023-05-17T19:11:21.005Z,65.40
2023-05-17T19:12:45.633Z,65.42
2023-05-17T19:14:23.329Z,64.97
2023-05-17T19:15:56.753Z,65.25
2023-05-17T19:17:21.264Z,65.06
2023-05-17T19:18:43.299Z,65.40
2023-05-17T19:20:05.136Z,65.45
2023-05-17T19:21:41.006Z,65.06
2023-05-17T19:23:05.135Z,65.06
2023-05-17T19:24:26.822Z,65.28
2023-05-17T19:26:07.109Z,65.26
2023-05-17T19:27:54.290Z,64.85
2023-05-17T19:29:38.207Z,65.42
2023-05-17T19:31:12.236Z,65.01
2023-05-17T19:32:41.427Z,65.49
2023-05-17T19:34:15.468Z,65.52
2023-05-17T19:35:42.206Z,65.74
2023-05-17T19:37:17.955Z,65.55
2023-05-17T19:38:42.264Z,66.47
2023-05-17T19:40:05.929Z,66.30
2023-05-17T19:41:35.509Z,66.29
2023-05-17T19:43:29.527Z,66.26
2023-05-17T19:44:51.312Z,65.95
2023-05-17T19:46:13.750Z,66.15
2023-05-17T19:47:58.662Z,66.34
2023-05-17T19:49:20.892Z,66.17
2023-05-17T19:50:53.184Z,65.86
2023-05-17T19:52:18.608Z,66.57
2023-05-17T19:53:52.777Z,66.28
2023-05-17T19:55:32.027Z,66.35
2023-05-17T19:56:56.306Z,66.62
2023-05-17T19:58:29.657Z,67.38
2023-05-17T20:00:02.943Z,66.50
2023-05-17T20:01:28.091Z,66.65
2023-05-17T20:02:49.854Z,66.95
2023-05-17T20:04:23.440Z,66.79
2023-05-17T20:05:55.113Z,66.74
2023-05-17T20:07:26.446Z,66.50
2023-05-17T20:09:00.171Z,66.51
2023-05-17T20:10:40.757Z,66.18
2023-05-17T20:12:26.171Z,65.81
2023-05-17T20:14:02.371Z,65.69
2023-05-17T20:15:26.661Z,65.10
2023-05-17T20:16:48.869Z,65.41